Terminal Aerodrome Forecast
Issued by NWS

Home | Current Version | Previous Version | Text Only | Print | Product List | Glossary On
Versions: 1 2 3 4 5 6 7 8 9 10 11 12 13 14 15 16 17 18 19 20 21
000
FTUS43 KIND 161100
TAFBMG
TAF
KBMG 161120Z 1612/1712 16004KT P6SM SCT250
     FM161400 14011KT P6SM SCT250
     FM161800 16014G19KT P6SM SCT150
     FM162300 15008KT P6SM BKN250
      AMD LTD TO CLD VIS AND WIND TIL 161300=

USA.gov is the U.S. government's official web portal to all federal, state and local government web resources and services.